createdAt,value
2022-12-28T00:00:22.612Z,73.54
2022-12-28T00:03:05.747Z,73.27
2022-12-28T00:05:48.908Z,73.29
2022-12-28T00:08:31.986Z,73.32
2022-12-28T00:11:28.204Z,72.92
2022-12-28T00:14:14.280Z,73.40
2022-12-28T00:16:57.667Z,72.99
2022-12-28T00:19:40.811Z,73.06
2022-12-28T00:22:24.406Z,72.82
2022-12-28T00:25:08.755Z,72.88
2022-12-28T00:27:53.128Z,72.49
2022-12-28T00:30:36.173Z,72.81
2022-12-28T00:33:19.223Z,73.15
2022-12-28T00:36:03.384Z,73.21
2022-12-28T00:38:46.855Z,72.55
2022-12-28T00:41:29.926Z,72.99
2022-12-28T00:44:14.455Z,73.28
2022-12-28T00:46:57.548Z,73.32
2022-12-28T00:49:40.652Z,72.33
2022-12-28T00:52:23.725Z,72.69
2022-12-28T00:55:07.354Z,72.90
2022-12-28T00:57:50.449Z,72.84
2022-12-28T01:00:36.403Z,73.04
2022-12-28T01:03:19.522Z,73.35
2022-12-28T01:06:06.493Z,72.76
2022-12-28T01:08:49.762Z,73.02
2022-12-28T01:11:33.855Z,73.09
2022-12-28T01:14:16.886Z,73.65
2022-12-28T01:17:01.657Z,73.28
2022-12-28T01:19:50.219Z,73.63
2022-12-28T01:22:36.765Z,75.02
2022-12-28T01:25:19.796Z,75.44
2022-12-28T01:28:02.910Z,75.94
2022-12-28T01:30:45.961Z,75.70
2022-12-28T01:33:30.765Z,76.06
2022-12-28T01:36:16.568Z,76.08
2022-12-28T01:39:02.769Z,75.91
2022-12-28T01:41:46.017Z,75.54
2022-12-28T01:44:52.331Z,75.19
2022-12-28T01:47:36.839Z,74.40
2022-12-28T01:50:26.223Z,74.54
2022-12-28T01:53:09.446Z,74.98
2022-12-28T01:55:53.013Z,75.02
2022-12-28T01:58:36.632Z,74.92
2022-12-28T02:01:20.057Z,74.39
2022-12-28T02:04:03.202Z,74.35
2022-12-28T02:06:48.512Z,74.03
2022-12-28T02:09:37.090Z,73.96
2022-12-28T02:12:20.794Z,74.88
2022-12-28T02:15:05.029Z,74.49
2022-12-28T02:17:48.434Z,74.06
2022-12-28T02:20:38.359Z,73.45
2022-12-28T02:23:37.381Z,73.11
2022-12-28T02:26:46.051Z,73.65
2022-12-28T02:29:52.937Z,72.65
2022-12-28T02:32:56.855Z,72.42
2022-12-28T02:35:46.883Z,72.94
2022-12-28T02:38:36.932Z,72.18
2022-12-28T02:41:22.777Z,72.15
2022-12-28T02:44:06.302Z,72.19
2022-12-28T02:47:08.229Z,72.18
2022-12-28T02:50:05.066Z,71.38
2022-12-28T02:53:20.525Z,72.86
2022-12-28T02:56:14.883Z,70.83
2022-12-28T02:59:22.824Z,72.16
2022-12-28T03:02:23.748Z,71.07
2022-12-28T03:05:15.038Z,71.42
2022-12-28T03:08:20.415Z,71.40
2022-12-28T03:11:08.932Z,71.47
2022-12-28T03:13:56.966Z,70.65
2022-12-28T03:16:56.777Z,69.90
2022-12-28T03:20:04.270Z,70.45
2022-12-28T03:23:05.134Z,71.34
2022-12-28T03:26:06.059Z,71.46
2022-12-28T03:29:08.833Z,71.28
2022-12-28T03:31:52.091Z,71.90
2022-12-28T03:34:35.604Z,72.42
2022-12-28T03:37:26.089Z,72.46
2022-12-28T03:40:13.903Z,73.67
2022-12-28T03:43:19.069Z,73.40
2022-12-28T03:46:06.058Z,73.49
2022-12-28T03:48:51.308Z,71.99
2022-12-28T03:51:35.955Z,71.97
2022-12-28T03:54:20.490Z,71.66
2022-12-28T03:57:03.601Z,70.45
2022-12-28T03:59:46.631Z,70.02
2022-12-28T04:02:29.784Z,70.38
2022-12-28T04:05:12.948Z,69.62
2022-12-28T04:07:56.133Z,69.64
2022-12-28T04:10:40.513Z,69.02
2022-12-28T04:13:24.791Z,69.72
2022-12-28T04:16:11.373Z,68.72
2022-12-28T04:18:54.504Z,68.99
2022-12-28T04:21:37.659Z,68.62
2022-12-28T04:24:20.793Z,67.86
2022-12-28T04:27:05.437Z,67.77
2022-12-28T04:29:48.410Z,67.69
2022-12-28T04:32:31.493Z,67.20
2022-12-28T04:35:14.508Z,67.41
2022-12-28T04:37:58.175Z,67.41
2022-12-28T04:40:41.223Z,66.58
2022-12-28T04:43:25.664Z,66.72
2022-12-28T04:46:12.600Z,66.55
2022-12-28T04:48:55.752Z,66.16
2022-12-28T04:51:38.902Z,65.79
2022-12-28T04:54:22.000Z,66.47
2022-12-28T04:57:05.233Z,65.92
2022-12-28T04:59:49.602Z,65.24
2022-12-28T05:02:33.028Z,64.76
2022-12-28T05:05:16.307Z,64.99
2022-12-28T05:08:02.654Z,64.56
2022-12-28T05:10:45.677Z,64.19
2022-12-28T05:13:28.932Z,64.44
2022-12-28T05:16:16.539Z,63.87
2022-12-28T05:18:59.682Z,63.57
2022-12-28T05:21:42.780Z,64.85
2022-12-28T05:24:25.918Z,66.11
2022-12-28T05:27:08.933Z,67.24
2022-12-28T05:29:52.029Z,67.39
2022-12-28T05:32:36.465Z,67.32
2022-12-28T05:35:19.508Z,67.68
2022-12-28T05:38:02.567Z,67.92
2022-12-28T05:40:45.798Z,67.93
2022-12-28T05:43:31.327Z,67.89
2022-12-28T05:46:16.120Z,68.61
2022-12-28T05:49:01.472Z,67.86
2022-12-28T05:51:44.643Z,67.59
2022-12-28T05:54:27.734Z,68.53
2022-12-28T05:57:10.696Z,69.88
2022-12-28T05:59:53.678Z,71.76
2022-12-28T06:02:36.868Z,70.49
2022-12-28T06:05:21.417Z,70.71
2022-12-28T06:08:04.506Z,71.84
2022-12-28T06:10:47.573Z,71.46
2022-12-28T06:13:31.867Z,71.13
2022-12-28T06:16:17.035Z,71.00
2022-12-28T06:19:00.604Z,70.15
2022-12-28T06:21:45.589Z,69.70
2022-12-28T06:24:28.678Z,69.64
2022-12-28T06:27:11.756Z,68.89
2022-12-28T06:29:54.777Z,69.39
2022-12-28T06:32:37.883Z,70.00
2022-12-28T06:35:20.975Z,70.25
2022-12-28T06:38:05.787Z,69.98
2022-12-28T06:41:12.148Z,70.33
2022-12-28T06:43:52.762Z,70.18
2022-12-28T06:46:36.474Z,70.10
2022-12-28T06:49:19.661Z,70.14
2022-12-28T06:52:02.721Z,68.77
2022-12-28T06:54:47.159Z,68.17
2022-12-28T06:57:30.242Z,67.98
2022-12-28T07:00:14.602Z,68.35
2022-12-28T07:02:59.378Z,67.67
2022-12-28T07:05:42.461Z,67.37
2022-12-28T07:08:25.486Z,67.10
2022-12-28T07:11:11.534Z,66.43
2022-12-28T07:13:54.576Z,65.55
2022-12-28T07:19:19.988Z,65.85
2022-12-28T07:22:03.719Z,65.68
2022-12-28T07:24:46.703Z,64.89
2022-12-28T07:27:31.239Z,64.72
2022-12-28T07:30:15.137Z,64.34
2022-12-28T07:32:58.217Z,65.00
2022-12-28T07:35:41.324Z,63.67
2022-12-28T07:38:24.380Z,62.96
2022-12-28T07:41:09.691Z,61.45
2022-12-28T07:43:54.124Z,57.59
2022-12-28T07:46:39.028Z,51.83
2022-12-28T07:49:22.082Z,48.18
2022-12-28T07:52:05.460Z,49.65
2022-12-28T07:54:48.503Z,51.78
2022-12-28T07:57:31.661Z,51.63
2022-12-28T08:00:20.249Z,53.64
2022-12-28T08:03:03.425Z,51.32
2022-12-28T08:05:46.460Z,51.68
2022-12-28T08:08:29.619Z,51.73
2022-12-28T08:11:15.088Z,51.05
2022-12-28T08:13:59.544Z,51.72
2022-12-28T08:16:45.367Z,51.81
2022-12-28T08:19:28.526Z,53.20
2022-12-28T08:22:11.961Z,54.13
2022-12-28T08:24:55.028Z,55.21
2022-12-28T08:27:38.823Z,55.67
2022-12-28T08:30:21.973Z,55.73
2022-12-28T08:33:06.422Z,55.05
2022-12-28T08:35:49.524Z,56.44
2022-12-28T08:38:33.001Z,57.05
2022-12-28T08:41:18.757Z,57.51
2022-12-28T08:44:01.968Z,58.13
2022-12-28T08:46:45.319Z,57.92
2022-12-28T08:49:29.995Z,58.62
2022-12-28T08:52:13.019Z,58.77
2022-12-28T08:54:56.236Z,57.55
2022-12-28T08:57:39.409Z,58.11
2022-12-28T09:00:22.719Z,59.66
2022-12-28T09:03:05.885Z,60.97
2022-12-28T09:05:54.380Z,61.57
2022-12-28T09:08:38.667Z,61.20
2022-12-28T09:11:22.218Z,62.69
2022-12-28T09:14:06.576Z,63.03
2022-12-28T09:16:49.590Z,61.90
2022-12-28T09:19:32.640Z,60.00
2022-12-28T09:22:17.097Z,60.59
2022-12-28T09:25:00.995Z,60.66
2022-12-28T09:27:44.107Z,58.81
2022-12-28T09:30:27.138Z,60.60
2022-12-28T09:33:27.888Z,61.25
2022-12-28T09:36:10.915Z,61.74
2022-12-28T09:38:55.535Z,59.69
2022-12-28T09:41:45.565Z,61.22
2022-12-28T09:44:45.767Z,62.79
2022-12-28T09:47:35.308Z,61.66
2022-12-28T09:50:31.927Z,58.87
2022-12-28T09:53:24.332Z,58.45
2022-12-28T09:56:24.710Z,57.61
2022-12-28T09:59:08.987Z,57.13
2022-12-28T10:01:57.088Z,55.15
2022-12-28T10:04:45.749Z,46.73
2022-12-28T10:07:32.935Z,44.61
2022-12-28T10:10:18.846Z,46.11
2022-12-28T10:13:45.596Z,45.66
2022-12-28T10:16:21.306Z,45.25
2022-12-28T10:19:08.480Z,48.31
2022-12-28T10:21:59.753Z,48.68
2022-12-28T10:24:43.122Z,50.46
2022-12-28T10:27:31.586Z,50.73
2022-12-28T10:30:24.078Z,49.15
2022-12-28T10:33:17.156Z,49.46
2022-12-28T10:36:00.872Z,48.28
2022-12-28T10:38:49.572Z,48.07
2022-12-28T10:41:37.462Z,48.87
2022-12-28T10:44:41.285Z,46.45
2022-12-28T10:47:31.714Z,48.13
2022-12-28T10:50:40.722Z,47.78
2022-12-28T10:53:30.616Z,45.37
2022-12-28T10:56:23.423Z,43.06
2022-12-28T10:59:21.437Z,44.37
2022-12-28T11:02:30.408Z,44.23
2022-12-28T11:05:21.272Z,44.21
2022-12-28T11:08:07.125Z,44.98
2022-12-28T11:10:58.416Z,47.19
2022-12-28T11:13:41.915Z,46.86
2022-12-28T11:16:24.957Z,46.47
2022-12-28T11:19:11.337Z,47.53
2022-12-28T11:21:54.640Z,47.81
2022-12-28T11:24:39.743Z,49.35
2022-12-28T11:27:24.733Z,49.95
2022-12-28T11:30:17.522Z,50.72
2022-12-28T11:33:04.973Z,50.06
2022-12-28T11:35:51.267Z,51.03
2022-12-28T11:38:41.664Z,52.44
2022-12-28T11:42:10.352Z,52.78
2022-12-28T11:44:52.585Z,51.97
2022-12-28T11:47:36.380Z,52.58
2022-12-28T11:50:54.487Z,52.60
2022-12-28T11:53:58.870Z,52.86
2022-12-28T11:57:00.610Z,53.41
2022-12-28T11:59:43.704Z,54.16
2022-12-28T12:02:42.693Z,53.96
2022-12-28T12:05:52.350Z,53.87
2022-12-28T12:08:50.911Z,53.98
2022-12-28T12:11:34.000Z,54.09
2022-12-28T12:14:20.634Z,53.87
2022-12-28T12:17:06.833Z,53.63
2022-12-28T12:19:53.399Z,53.64
2022-12-28T12:22:43.782Z,54.02
2022-12-28T12:25:37.849Z,53.86
2022-12-28T12:28:34.361Z,53.98
2022-12-28T12:31:29.517Z,55.64
2022-12-28T12:34:19.966Z,55.34
2022-12-28T12:37:37.353Z,54.07
2022-12-28T12:40:51.644Z,54.44
2022-12-28T12:43:46.862Z,54.24
2022-12-28T12:46:52.881Z,54.58
2022-12-28T12:50:08.515Z,54.87
2022-12-28T12:53:01.915Z,54.15
2022-12-28T12:56:00.787Z,55.74
2022-12-28T12:58:57.128Z,57.12
2022-12-28T13:01:51.132Z,56.66
2022-12-28T13:04:36.697Z,56.84
2022-12-28T13:07:23.427Z,57.79
2022-12-28T13:10:11.178Z,59.23
2022-12-28T13:12:59.667Z,59.34
2022-12-28T13:15:45.289Z,59.04
2022-12-28T13:18:45.549Z,59.64
2022-12-28T13:21:31.614Z,58.24
2022-12-28T13:24:22.794Z,59.23
2022-12-28T13:27:19.856Z,58.54
2022-12-28T13:30:05.438Z,57.56
2022-12-28T13:32:52.673Z,58.11
2022-12-28T13:35:36.155Z,57.91
2022-12-28T13:38:19.495Z,58.33
2022-12-28T13:41:04.189Z,60.19
2022-12-28T13:44:12.893Z,58.80
2022-12-28T13:47:04.361Z,60.55
2022-12-28T13:49:52.682Z,61.66
2022-12-28T13:52:41.450Z,60.84
2022-12-28T13:55:30.640Z,61.45
2022-12-28T13:58:17.548Z,62.44
2022-12-28T14:01:05.657Z,61.91
2022-12-28T14:03:51.343Z,60.77
2022-12-28T14:06:35.717Z,60.47
2022-12-28T14:09:21.693Z,60.34
2022-12-28T14:12:06.117Z,62.22
2022-12-28T14:14:49.919Z,61.11
2022-12-28T14:17:33.359Z,60.51
2022-12-28T14:20:18.427Z,61.05
2022-12-28T14:23:23.474Z,60.51
2022-12-28T14:26:09.732Z,61.44
2022-12-28T14:28:54.921Z,61.34
2022-12-28T14:31:38.229Z,61.78
2022-12-28T14:34:25.344Z,62.37
2022-12-28T14:37:24.175Z,62.02
2022-12-28T14:40:22.758Z,63.35
2022-12-28T14:43:17.063Z,63.54
2022-12-28T14:46:16.336Z,63.37
2022-12-28T14:49:00.771Z,63.49
2022-12-28T14:54:56.854Z,65.10
2022-12-28T14:57:44.227Z,65.60
2022-12-28T15:00:16.370Z,63.09
2022-12-28T15:00:30.425Z,65.92
2022-12-28T15:03:20.050Z,65.22
2022-12-28T15:06:03.202Z,64.82
2022-12-28T15:08:48.845Z,65.85
2022-12-28T15:11:33.349Z,66.01
2022-12-28T15:14:16.645Z,66.36
2022-12-28T15:17:00.929Z,66.55
2022-12-28T15:19:45.659Z,66.35
2022-12-28T15:22:30.309Z,66.00
2022-12-28T15:25:13.808Z,65.86
2022-12-28T15:27:58.271Z,65.73
2022-12-28T15:30:42.471Z,65.94
2022-12-28T15:33:25.462Z,66.79
2022-12-28T15:36:16.954Z,66.99
2022-12-28T15:39:02.459Z,66.89
2022-12-28T15:41:48.123Z,68.06
2022-12-28T15:44:32.658Z,69.41
2022-12-28T15:47:15.877Z,69.43
2022-12-28T15:50:03.308Z,70.85
2022-12-28T15:52:46.451Z,70.66
2022-12-28T15:55:31.487Z,71.56
2022-12-28T15:58:14.538Z,72.60
2022-12-28T16:00:59.102Z,72.51
2022-12-28T16:03:42.303Z,71.68
2022-12-28T16:06:26.635Z,71.03
2022-12-28T16:09:09.740Z,73.68
2022-12-28T16:11:55.256Z,72.48
2022-12-28T16:14:38.593Z,72.48
2022-12-28T16:17:23.095Z,72.28
2022-12-28T16:20:06.985Z,72.02
2022-12-28T16:22:50.104Z,72.35
2022-12-28T16:25:33.277Z,73.04
2022-12-28T16:28:18.450Z,72.63
2022-12-28T16:31:01.747Z,72.51
2022-12-28T16:33:47.589Z,73.25
2022-12-28T16:36:31.409Z,73.80
2022-12-28T16:39:16.657Z,74.58
2022-12-28T16:41:59.791Z,74.44
2022-12-28T16:44:42.927Z,74.72
2022-12-28T16:47:26.005Z,75.74
2022-12-28T16:50:11.135Z,74.78
2022-12-28T16:52:54.287Z,75.65
2022-12-28T16:55:41.250Z,75.99
2022-12-28T16:58:25.002Z,76.52
2022-12-28T17:01:10.315Z,76.25
2022-12-28T17:03:55.328Z,75.99
2022-12-28T17:06:44.213Z,75.71
2022-12-28T17:09:27.978Z,74.66
2022-12-28T17:12:11.076Z,75.00
2022-12-28T17:14:54.650Z,74.75
2022-12-28T17:17:38.177Z,73.85
2022-12-28T17:20:21.521Z,74.48
2022-12-28T17:23:07.413Z,74.19
2022-12-28T17:25:52.474Z,73.20
2022-12-28T17:28:35.594Z,73.39
2022-12-28T17:31:21.319Z,74.68
2022-12-28T17:34:05.304Z,76.13
2022-12-28T17:36:48.639Z,75.48
2022-12-28T17:39:39.610Z,74.55
2022-12-28T17:42:23.747Z,75.14
2022-12-28T17:45:11.414Z,74.42
2022-12-28T17:47:55.046Z,73.99
2022-12-28T17:50:43.005Z,74.03
2022-12-28T17:53:26.218Z,74.97
2022-12-28T17:56:13.772Z,75.52
2022-12-28T17:58:58.734Z,76.04
2022-12-28T18:01:42.236Z,77.02
2022-12-28T18:04:25.801Z,77.01
2022-12-28T18:07:09.280Z,77.92
2022-12-28T18:09:53.413Z,77.98
2022-12-28T18:12:38.201Z,77.88
2022-12-28T18:15:21.704Z,76.97
2022-12-28T18:18:04.832Z,77.64
2022-12-28T18:20:57.764Z,78.06
2022-12-28T18:23:40.940Z,77.14
2022-12-28T18:26:26.315Z,76.93
2022-12-28T18:29:10.936Z,76.65
2022-12-28T18:31:54.066Z,76.78
2022-12-28T18:34:37.111Z,75.58
2022-12-28T18:37:20.171Z,74.30
2022-12-28T18:40:03.691Z,75.06
2022-12-28T18:42:46.940Z,72.23
2022-12-28T18:45:31.531Z,71.41
2022-12-28T18:48:14.629Z,73.21
2022-12-28T18:51:00.135Z,74.23
2022-12-28T18:53:43.570Z,73.72
2022-12-28T18:56:26.633Z,74.38
2022-12-28T18:59:10.367Z,74.26
2022-12-28T19:02:06.316Z,75.04
2022-12-28T19:04:53.488Z,75.35
2022-12-28T19:07:36.788Z,75.73
2022-12-28T19:10:21.265Z,75.05
2022-12-28T19:13:04.333Z,74.84
2022-12-28T19:15:47.640Z,74.57
2022-12-28T19:18:32.324Z,74.58
2022-12-28T19:21:26.222Z,74.11
2022-12-28T19:24:13.790Z,74.68
2022-12-28T19:26:56.982Z,74.08
2022-12-28T19:29:40.089Z,72.64
2022-12-28T19:32:23.185Z,71.72
2022-12-28T19:35:08.168Z,72.29
2022-12-28T19:37:51.289Z,72.76
2022-12-28T19:40:34.334Z,72.14
2022-12-28T19:43:17.363Z,72.29
2022-12-28T19:46:05.465Z,71.84
2022-12-28T19:48:49.051Z,72.79
2022-12-28T19:51:35.044Z,72.99
2022-12-28T19:54:18.206Z,73.29
2022-12-28T19:57:01.388Z,72.80
2022-12-28T19:59:44.630Z,73.58
2022-12-28T20:02:27.936Z,74.30
2022-12-28T20:05:11.236Z,73.66
2022-12-28T20:07:55.892Z,73.70
2022-12-28T20:10:39.271Z,73.89
2022-12-28T20:13:22.825Z,73.79
2022-12-28T20:16:07.016Z,73.59
2022-12-28T20:18:51.285Z,73.72
2022-12-28T20:21:34.504Z,74.92
2022-12-28T20:24:21.918Z,74.77
2022-12-28T20:27:05.321Z,74.85
2022-12-28T20:29:48.415Z,74.73
2022-12-28T20:32:31.879Z,75.90
2022-12-28T20:35:15.470Z,74.51
2022-12-28T20:37:58.666Z,75.37
2022-12-28T20:40:43.383Z,74.40
2022-12-28T20:43:25.467Z,74.23
2022-12-28T20:46:13.068Z,74.40
2022-12-28T20:48:56.531Z,74.80
2022-12-28T20:51:39.869Z,74.80
2022-12-28T20:54:23.749Z,75.15
2022-12-28T20:57:08.261Z,75.94
2022-12-28T20:59:51.566Z,77.12
2022-12-28T21:02:34.717Z,76.57
2022-12-28T21:05:17.818Z,76.67
2022-12-28T21:08:03.148Z,77.12
2022-12-28T21:10:48.210Z,77.48
2022-12-28T21:13:32.826Z,78.08
2022-12-28T21:16:19.574Z,77.79
2022-12-28T21:19:03.916Z,78.96
2022-12-28T21:21:48.589Z,79.20
2022-12-28T21:24:31.663Z,78.65
2022-12-28T21:27:14.790Z,79.87
2022-12-28T21:29:59.337Z,79.48
2022-12-28T21:32:42.712Z,80.23
2022-12-28T21:35:30.431Z,80.57
2022-12-28T21:38:16.865Z,80.50
2022-12-28T21:41:01.580Z,80.64
2022-12-28T21:43:44.903Z,80.97
2022-12-28T21:46:29.469Z,80.78
2022-12-28T21:49:13.205Z,80.90
2022-12-28T21:51:59.867Z,81.03
2022-12-28T21:54:42.948Z,81.13
2022-12-28T21:57:26.112Z,81.26
2022-12-28T22:00:30.750Z,81.63
2022-12-28T22:03:32.849Z,80.71
2022-12-28T22:06:16.052Z,81.43
2022-12-28T22:09:16.499Z,80.93
2022-12-28T22:12:17.047Z,81.64
2022-12-28T22:15:14.168Z,81.44
2022-12-28T22:17:59.551Z,81.87
2022-12-28T22:20:46.464Z,81.54
2022-12-28T22:23:34.363Z,81.36
2022-12-28T22:26:17.981Z,81.33
2022-12-28T22:29:01.022Z,81.36
2022-12-28T22:31:44.278Z,81.00
2022-12-28T22:34:27.475Z,81.96
2022-12-28T22:37:13.898Z,81.35
2022-12-28T22:39:57.023Z,81.07
2022-12-28T22:42:42.501Z,80.76
2022-12-28T22:45:25.628Z,80.64
2022-12-28T22:48:08.649Z,81.73
2022-12-28T22:50:51.936Z,82.24
2022-12-28T22:53:37.519Z,80.90
2022-12-28T22:56:21.191Z,80.60
2022-12-28T22:59:05.087Z,80.74
2022-12-28T23:01:49.251Z,80.63
2022-12-28T23:04:32.474Z,81.88
2022-12-28T23:07:15.676Z,82.00
2022-12-28T23:10:00.169Z,81.41
2022-12-28T23:12:43.274Z,82.60
2022-12-28T23:15:25.411Z,81.69
2022-12-28T23:18:22.336Z,82.16
2022-12-28T23:21:22.901Z,81.30
2022-12-28T23:24:24.342Z,78.85
2022-12-28T23:27:23.315Z,80.55
2022-12-28T23:30:09.432Z,80.26
2022-12-28T23:32:53.661Z,80.18
2022-12-28T23:35:36.724Z,79.34
2022-12-28T23:38:19.860Z,78.21
2022-12-28T23:41:24.937Z,77.60
2022-12-28T23:44:09.705Z,77.36
2022-12-28T23:46:58.847Z,78.31
2022-12-28T23:49:42.214Z,77.59
2022-12-28T23:52:26.225Z,77.29
2022-12-28T23:55:11.117Z,77.13
2022-12-28T23:57:54.288Z,77.09
